sensor_id;sensor_type;location;lat;lon;timestamp;temperature;humidity
10911;DHT22;5508;49.150;11.030;2022-08-21T00:02:14;15.50;99.90
10911;DHT22;5508;49.150;11.030;2022-08-21T00:05:16;15.40;99.90
10911;DHT22;5508;49.150;11.030;2022-08-21T00:08:18;15.40;99.90
10911;DHT22;5508;49.150;11.030;2022-08-21T00:11:19;15.50;99.90
10911;DHT22;5508;49.150;11.030;2022-08-21T00:14:19;15.40;99.90
10911;DHT22;5508;49.150;11.030;2022-08-21T00:17:20;15.30;99.90
10911;DHT22;5508;49.150;11.030;2022-08-21T00:20:21;15.30;99.90
10911;DHT22;5508;49.150;11.030;2022-08-21T00:23:22;15.30;99.90
10911;DHT22;5508;49.150;11.030;2022-08-21T00:26:23;15.20;99.90
10911;DHT22;5508;49.150;11.030;2022-08-21T00:29:24;15.20;99.90
10911;DHT22;5508;49.150;11.030;2022-08-21T00:32:26;15.20;99.90
10911;DHT22;5508;49.150;11.030;2022-08-21T00:35:30;15.20;99.90
10911;DHT22;5508;49.150;11.030;2022-08-21T00:38:31;15.20;99.90
10911;DHT22;5508;49.150;11.030;2022-08-21T00:41:32;15.20;99.90
10911;DHT22;5508;49.150;11.030;2022-08-21T00:44:33;15.10;99.90
10911;DHT22;5508;49.150;11.030;2022-08-21T00:47:34;15.10;99.90
10911;DHT22;5508;49.150;11.030;2022-08-21T00:50:38;15.10;99.90
10911;DHT22;5508;49.150;11.030;2022-08-21T00:53:44;15.10;99.90
10911;DHT22;5508;49.150;11.030;2022-08-21T00:56:49;15.00;99.90
10911;DHT22;5508;49.150;11.030;2022-08-21T00:59:52;15.00;99.90
10911;DHT22;5508;49.150;11.030;2022-08-21T01:02:55;14.90;99.90
10911;DHT22;5508;49.150;11.030;2022-08-21T01:05:56;14.80;99.90
10911;DHT22;5508;49.150;11.030;2022-08-21T01:08:56;14.80;99.90
10911;DHT22;5508;49.150;11.030;2022-08-21T01:11:57;14.70;99.90
10911;DHT22;5508;49.150;11.030;2022-08-21T01:14:58;14.70;99.90
10911;DHT22;5508;49.150;11.030;2022-08-21T01:18:03;14.70;99.90
10911;DHT22;5508;49.150;11.030;2022-08-21T01:21:10;14.70;99.90
10911;DHT22;5508;49.150;11.030;2022-08-21T01:24:12;14.60;99.90
10911;DHT22;5508;49.150;11.030;2022-08-21T01:27:12;14.60;99.90
10911;DHT22;5508;49.150;11.030;2022-08-21T01:30:17;14.60;99.90
10911;DHT22;5508;49.150;11.030;2022-08-21T01:33:20;14.60;99.90
10911;DHT22;5508;49.150;11.030;2022-08-21T01:36:23;14.50;99.90
10911;DHT22;5508;49.150;11.030;2022-08-21T01:39:24;14.60;99.90
10911;DHT22;5508;49.150;11.030;2022-08-21T01:42:25;14.50;99.90
10911;DHT22;5508;49.150;11.030;2022-08-21T01:45:25;14.50;99.90
10911;DHT22;5508;49.150;11.030;2022-08-21T01:48:26;14.50;99.90
10911;DHT22;5508;49.150;11.030;2022-08-21T01:51:27;14.50;99.90
10911;DHT22;5508;49.150;11.030;2022-08-21T01:54:28;14.50;99.90
10911;DHT22;5508;49.150;11.030;2022-08-21T01:57:29;14.50;99.90
10911;DHT22;5508;49.150;11.030;2022-08-21T02:00:29;14.60;99.90
10911;DHT22;5508;49.150;11.030;2022-08-21T02:03:30;14.50;99.90
10911;DHT22;5508;49.150;11.030;2022-08-21T02:06:31;14.40;99.90
10911;DHT22;5508;49.150;11.030;2022-08-21T02:09:31;14.40;99.90
10911;DHT22;5508;49.150;11.030;2022-08-21T02:12:32;14.30;99.90
10911;DHT22;5508;49.150;11.030;2022-08-21T02:15:32;14.30;99.90
10911;DHT22;5508;49.150;11.030;2022-08-21T02:18:34;14.20;99.90
10911;DHT22;5508;49.150;11.030;2022-08-21T02:21:34;14.30;99.90
10911;DHT22;5508;49.150;11.030;2022-08-21T02:24:36;14.20;99.90
10911;DHT22;5508;49.150;11.030;2022-08-21T02:27:43;14.20;99.90
10911;DHT22;5508;49.150;11.030;2022-08-21T02:30:47;14.20;99.90
10911;DHT22;5508;49.150;11.030;2022-08-21T02:33:48;14.10;99.90
10911;DHT22;5508;49.150;11.030;2022-08-21T02:36:48;14.20;99.90
10911;DHT22;5508;49.150;11.030;2022-08-21T02:39:49;14.20;99.90
10911;DHT22;5508;49.150;11.030;2022-08-21T02:42:50;14.20;99.90
10911;DHT22;5508;49.150;11.030;2022-08-21T02:45:51;14.10;99.90
10911;DHT22;5508;49.150;11.030;2022-08-21T02:48:52;14.10;99.90
10911;DHT22;5508;49.150;11.030;2022-08-21T02:51:53;14.00;99.90
10911;DHT22;5508;49.150;11.030;2022-08-21T02:54:53;14.00;99.90
10911;DHT22;5508;49.150;11.030;2022-08-21T02:57:55;13.90;99.90
10911;DHT22;5508;49.150;11.030;2022-08-21T03:00:56;13.80;99.90
10911;DHT22;5508;49.150;11.030;2022-08-21T03:03:58;13.80;99.90
10911;DHT22;5508;49.150;11.030;2022-08-21T03:06:58;13.80;99.90
10911;DHT22;5508;49.150;11.030;2022-08-21T03:10:00;13.80;99.90
10911;DHT22;5508;49.150;11.030;2022-08-21T03:13:01;13.80;99.90
10911;DHT22;5508;49.150;11.030;2022-08-21T03:16:03;13.80;99.90
10911;DHT22;5508;49.150;11.030;2022-08-21T03:19:04;13.80;99.90
10911;DHT22;5508;49.150;11.030;2022-08-21T03:22:04;13.80;99.90
10911;DHT22;5508;49.150;11.030;2022-08-21T03:25:06;13.80;99.90
10911;DHT22;5508;49.150;11.030;2022-08-21T03:28:13;13.80;99.90
10911;DHT22;5508;49.150;11.030;2022-08-21T03:31:13;13.70;99.90
10911;DHT22;5508;49.150;11.030;2022-08-21T03:34:14;13.70;99.90
10911;DHT22;5508;49.150;11.030;2022-08-21T03:37:15;13.70;99.90
10911;DHT22;5508;49.150;11.030;2022-08-21T03:40:19;13.60;99.90
10911;DHT22;5508;49.150;11.030;2022-08-21T03:43:21;13.60;99.90
10911;DHT22;5508;49.150;11.030;2022-08-21T03:46:21;13.50;99.90
10911;DHT22;5508;49.150;11.030;2022-08-21T03:49:22;13.50;99.90
10911;DHT22;5508;49.150;11.030;2022-08-21T03:52:23;13.60;99.90
10911;DHT22;5508;49.150;11.030;2022-08-21T03:55:24;13.60;99.90
10911;DHT22;5508;49.150;11.030;2022-08-21T03:58:27;13.60;99.90
10911;DHT22;5508;49.150;11.030;2022-08-21T04:01:28;13.60;99.90
10911;DHT22;5508;49.150;11.030;2022-08-21T04:04:29;13.60;99.90
10911;DHT22;5508;49.150;11.030;2022-08-21T04:07:30;13.50;99.90
10911;DHT22;5508;49.150;11.030;2022-08-21T04:10:33;13.60;99.90
10911;DHT22;5508;49.150;11.030;2022-08-21T04:13:34;13.60;99.90
10911;DHT22;5508;49.150;11.030;2022-08-21T04:16:35;13.50;99.90
10911;DHT22;5508;49.150;11.030;2022-08-21T04:19:36;13.40;99.90
10911;DHT22;5508;49.150;11.030;2022-08-21T04:22:36;13.40;99.90
10911;DHT22;5508;49.150;11.030;2022-08-21T04:25:37;13.40;99.90
10911;DHT22;5508;49.150;11.030;2022-08-21T04:28:38;13.40;99.90
10911;DHT22;5508;49.150;11.030;2022-08-21T04:31:38;13.40;99.90
10911;DHT22;5508;49.150;11.030;2022-08-21T04:34:39;13.40;99.90
10911;DHT22;5508;49.150;11.030;2022-08-21T04:37:39;13.40;99.90
10911;DHT22;5508;49.150;11.030;2022-08-21T04:40:40;13.30;99.90
10911;DHT22;5508;49.150;11.030;2022-08-21T04:43:41;13.20;99.90
10911;DHT22;5508;49.150;11.030;2022-08-21T04:46:41;13.30;99.90
10911;DHT22;5508;49.150;11.030;2022-08-21T04:49:42;13.20;99.90
10911;DHT22;5508;49.150;11.030;2022-08-21T04:52:43;13.20;99.90
10911;DHT22;5508;49.150;11.030;2022-08-21T04:55:45;13.20;99.90
10911;DHT22;5508;49.150;11.030;2022-08-21T04:58:46;13.30;99.90
10911;DHT22;5508;49.150;11.030;2022-08-21T05:01:49;13.40;99.90
10911;DHT22;5508;49.150;11.030;2022-08-21T05:04:52;13.40;99.90
10911;DHT22;5508;49.150;11.030;2022-08-21T05:07:53;13.40;99.90
10911;DHT22;5508;49.150;11.030;2022-08-21T05:10:54;13.40;99.90
10911;DHT22;5508;49.150;11.030;2022-08-21T05:13:55;13.50;99.90
10911;DHT22;5508;49.150;11.030;2022-08-21T05:16:55;13.50;99.90
10911;DHT22;5508;49.150;11.030;2022-08-21T05:19:56;13.50;99.90
10911;DHT22;5508;49.150;11.030;2022-08-21T05:22:57;13.70;99.90
10911;DHT22;5508;49.150;11.030;2022-08-21T05:25:57;13.80;99.90
10911;DHT22;5508;49.150;11.030;2022-08-21T05:28:58;13.90;99.90
10911;DHT22;5508;49.150;11.030;2022-08-21T05:31:59;13.90;99.90
10911;DHT22;5508;49.150;11.030;2022-08-21T05:35:00;14.00;99.90
10911;DHT22;5508;49.150;11.030;2022-08-21T05:38:00;14.10;99.90
10911;DHT22;5508;49.150;11.030;2022-08-21T05:41:02;14.20;99.90
10911;DHT22;5508;49.150;11.030;2022-08-21T05:44:02;14.30;99.90
10911;DHT22;5508;49.150;11.030;2022-08-21T05:47:05;14.40;99.90
10911;DHT22;5508;49.150;11.030;2022-08-21T05:50:06;14.40;99.90
10911;DHT22;5508;49.150;11.030;2022-08-21T05:53:07;14.50;99.90
10911;DHT22;5508;49.150;11.030;2022-08-21T05:56:08;14.60;99.90
10911;DHT22;5508;49.150;11.030;2022-08-21T05:59:09;14.70;99.90
10911;DHT22;5508;49.150;11.030;2022-08-21T06:02:11;14.80;99.90
10911;DHT22;5508;49.150;11.030;2022-08-21T06:05:11;15.00;99.90
10911;DHT22;5508;49.150;11.030;2022-08-21T06:08:13;15.20;99.90
10911;DHT22;5508;49.150;11.030;2022-08-21T06:11:14;15.40;99.90
10911;DHT22;5508;49.150;11.030;2022-08-21T06:14:15;15.40;99.90
10911;DHT22;5508;49.150;11.030;2022-08-21T06:17:16;15.60;99.90
10911;DHT22;5508;49.150;11.030;2022-08-21T06:20:17;15.60;99.90
10911;DHT22;5508;49.150;11.030;2022-08-21T06:23:17;15.80;99.90
10911;DHT22;5508;49.150;11.030;2022-08-21T06:26:18;15.80;99.90
10911;DHT22;5508;49.150;11.030;2022-08-21T06:29:19;15.90;99.90
10911;DHT22;5508;49.150;11.030;2022-08-21T06:32:20;16.20;99.90
10911;DHT22;5508;49.150;11.030;2022-08-21T06:35:20;16.30;99.90
10911;DHT22;5508;49.150;11.030;2022-08-21T06:38:21;16.30;99.90
10911;DHT22;5508;49.150;11.030;2022-08-21T06:41:22;15.90;99.90
10911;DHT22;5508;49.150;11.030;2022-08-21T06:44:22;16.00;99.90
10911;DHT22;5508;49.150;11.030;2022-08-21T06:47:23;16.30;99.90
10911;DHT22;5508;49.150;11.030;2022-08-21T06:50:23;16.40;99.90
10911;DHT22;5508;49.150;11.030;2022-08-21T06:53:24;16.60;99.90
10911;DHT22;5508;49.150;11.030;2022-08-21T06:56:25;16.80;99.90
10911;DHT22;5508;49.150;11.030;2022-08-21T06:59:25;17.10;99.90
10911;DHT22;5508;49.150;11.030;2022-08-21T07:02:26;17.20;99.90
10911;DHT22;5508;49.150;11.030;2022-08-21T07:05:28;17.30;99.90
10911;DHT22;5508;49.150;11.030;2022-08-21T07:08:29;17.60;99.90
10911;DHT22;5508;49.150;11.030;2022-08-21T07:11:29;17.90;99.90
10911;DHT22;5508;49.150;11.030;2022-08-21T07:14:30;18.20;97.00
10911;DHT22;5508;49.150;11.030;2022-08-21T07:17:30;18.10;96.50
10911;DHT22;5508;49.150;11.030;2022-08-21T07:20:32;18.10;99.30
10911;DHT22;5508;49.150;11.030;2022-08-21T07:23:38;18.40;95.50
10911;DHT22;5508;49.150;11.030;2022-08-21T07:26:40;18.50;98.10
10911;DHT22;5508;49.150;11.030;2022-08-21T07:29:41;18.20;98.70
10911;DHT22;5508;49.150;11.030;2022-08-21T07:32:42;18.30;98.90
10911;DHT22;5508;49.150;11.030;2022-08-21T07:35:42;18.40;99.60
10911;DHT22;5508;49.150;11.030;2022-08-21T07:38:43;18.50;99.70
10911;DHT22;5508;49.150;11.030;2022-08-21T07:41:44;18.80;99.60
10911;DHT22;5508;49.150;11.030;2022-08-21T07:44:44;19.00;97.00
10911;DHT22;5508;49.150;11.030;2022-08-21T07:47:45;19.10;97.20
10911;DHT22;5508;49.150;11.030;2022-08-21T07:50:46;19.10;95.10
10911;DHT22;5508;49.150;11.030;2022-08-21T07:53:49;19.20;95.40
10911;DHT22;5508;49.150;11.030;2022-08-21T07:56:50;19.40;96.10
10911;DHT22;5508;49.150;11.030;2022-08-21T07:59:50;19.80;92.60
10911;DHT22;5508;49.150;11.030;2022-08-21T08:02:52;19.50;95.60
10911;DHT22;5508;49.150;11.030;2022-08-21T08:05:53;20.00;91.90
10911;DHT22;5508;49.150;11.030;2022-08-21T08:08:54;20.10;94.00
10911;DHT22;5508;49.150;11.030;2022-08-21T08:11:54;19.90;93.70
10911;DHT22;5508;49.150;11.030;2022-08-21T08:14:56;20.30;91.90
10911;DHT22;5508;49.150;11.030;2022-08-21T08:17:57;20.80;87.40
10911;DHT22;5508;49.150;11.030;2022-08-21T08:20:58;21.20;90.10
10911;DHT22;5508;49.150;11.030;2022-08-21T08:24:00;21.40;85.40
10911;DHT22;5508;49.150;11.030;2022-08-21T08:27:00;21.40;85.00
10911;DHT22;5508;49.150;11.030;2022-08-21T08:30:01;21.40;87.10
10911;DHT22;5508;49.150;11.030;2022-08-21T08:33:02;21.50;87.00
10911;DHT22;5508;49.150;11.030;2022-08-21T08:36:02;21.20;87.20
10911;DHT22;5508;49.150;11.030;2022-08-21T08:39:04;21.10;87.70
10911;DHT22;5508;49.150;11.030;2022-08-21T08:42:09;20.80;87.80
10911;DHT22;5508;49.150;11.030;2022-08-21T08:45:18;21.20;86.80
10911;DHT22;5508;49.150;11.030;2022-08-21T08:48:46;21.30;86.30
10911;DHT22;5508;49.150;11.030;2022-08-21T08:51:56;21.40;82.30
10911;DHT22;5508;49.150;11.030;2022-08-21T08:55:06;21.20;85.30
10911;DHT22;5508;49.150;11.030;2022-08-21T08:58:36;21.30;81.80
10911;DHT22;5508;49.150;11.030;2022-08-21T09:01:37;21.60;79.50
10911;DHT22;5508;49.150;11.030;2022-08-21T09:04:38;21.70;83.50
10911;DHT22;5508;49.150;11.030;2022-08-21T09:08:14;21.90;75.90
10911;DHT22;5508;49.150;11.030;2022-08-21T09:27:29;22.30;69.70
10911;DHT22;5508;49.150;11.030;2022-08-21T09:30:32;22.20;70.70
10911;DHT22;5508;49.150;11.030;2022-08-21T09:33:32;22.00;73.70
10911;DHT22;5508;49.150;11.030;2022-08-21T09:36:42;22.20;73.00
10911;DHT22;5508;49.150;11.030;2022-08-21T09:39:43;22.20;77.10
10911;DHT22;5508;49.150;11.030;2022-08-21T09:42:55;22.40;73.70
10911;DHT22;5508;49.150;11.030;2022-08-21T09:46:06;22.70;71.20
10911;DHT22;5508;49.150;11.030;2022-08-21T09:49:06;22.80;69.90
10911;DHT22;5508;49.150;11.030;2022-08-21T09:52:20;22.60;71.10
10911;DHT22;5508;49.150;11.030;2022-08-21T09:55:52;22.60;74.80
10911;DHT22;5508;49.150;11.030;2022-08-21T09:59:29;23.00;69.70
10911;DHT22;5508;49.150;11.030;2022-08-21T10:02:34;22.90;70.20
10911;DHT22;5508;49.150;11.030;2022-08-21T10:05:35;22.70;70.00
10911;DHT22;5508;49.150;11.030;2022-08-21T10:08:40;22.90;69.70
10911;DHT22;5508;49.150;11.030;2022-08-21T10:11:49;22.70;68.80
10911;DHT22;5508;49.150;11.030;2022-08-21T10:15:20;22.80;69.90
10911;DHT22;5508;49.150;11.030;2022-08-21T10:22:18;23.90;65.20
10911;DHT22;5508;49.150;11.030;2022-08-21T10:25:27;23.30;65.30
10911;DHT22;5508;49.150;11.030;2022-08-21T10:39:34;23.00;70.50
10911;DHT22;5508;49.150;11.030;2022-08-21T10:53:27;22.60;65.70
10911;DHT22;5508;49.150;11.030;2022-08-21T10:59:42;23.20;61.70
10911;DHT22;5508;49.150;11.030;2022-08-21T11:02:45;23.70;64.50
10911;DHT22;5508;49.150;11.030;2022-08-21T11:05:52;23.90;59.10
10911;DHT22;5508;49.150;11.030;2022-08-21T11:08:58;23.90;64.00
10911;DHT22;5508;49.150;11.030;2022-08-21T11:12:06;23.80;61.10
10911;DHT22;5508;49.150;11.030;2022-08-21T11:22:38;23.00;62.50
10911;DHT22;5508;49.150;11.030;2022-08-21T11:25:44;22.80;64.70
10911;DHT22;5508;49.150;11.030;2022-08-21T11:28:52;22.60;65.20
10911;DHT22;5508;49.150;11.030;2022-08-21T11:35:34;23.00;59.80
10911;DHT22;5508;49.150;11.030;2022-08-21T11:38:42;23.70;61.70
10911;DHT22;5508;49.150;11.030;2022-08-21T11:55:25;24.10;55.30
10911;DHT22;5508;49.150;11.030;2022-08-21T11:58:32;23.60;57.40
10911;DHT22;5508;49.150;11.030;2022-08-21T12:01:39;23.20;57.00
10911;DHT22;5508;49.150;11.030;2022-08-21T12:05:08;23.00;54.90
10911;DHT22;5508;49.150;11.030;2022-08-21T12:11:22;23.50;56.90
10911;DHT22;5508;49.150;11.030;2022-08-21T12:14:22;23.80;55.50
10911;DHT22;5508;49.150;11.030;2022-08-21T12:17:35;24.20;54.30
10911;DHT22;5508;49.150;11.030;2022-08-21T12:20:43;24.30;50.90
10911;DHT22;5508;49.150;11.030;2022-08-21T12:23:57;24.30;53.00
10911;DHT22;5508;49.150;11.030;2022-08-21T12:27:14;24.20;53.80
10911;DHT22;5508;49.150;11.030;2022-08-21T12:33:36;24.10;57.70
10911;DHT22;5508;49.150;11.030;2022-08-21T12:36:48;24.30;57.40
10911;DHT22;5508;49.150;11.030;2022-08-21T12:39:51;24.60;52.90
10911;DHT22;5508;49.150;11.030;2022-08-21T12:42:54;24.70;47.90
10911;DHT22;5508;49.150;11.030;2022-08-21T12:45:56;24.70;49.20
10911;DHT22;5508;49.150;11.030;2022-08-21T12:49:19;24.70;48.10
10911;DHT22;5508;49.150;11.030;2022-08-21T12:52:24;24.70;52.40
10911;DHT22;5508;49.150;11.030;2022-08-21T12:55:28;24.80;48.40
10911;DHT22;5508;49.150;11.030;2022-08-21T12:58:30;24.80;46.80
10911;DHT22;5508;49.150;11.030;2022-08-21T13:01:39;24.90;49.80
10911;DHT22;5508;49.150;11.030;2022-08-21T13:04:44;25.10;50.50
10911;DHT22;5508;49.150;11.030;2022-08-21T13:07:48;25.20;49.70
10911;DHT22;5508;49.150;11.030;2022-08-21T13:10:57;25.10;43.20
10911;DHT22;5508;49.150;11.030;2022-08-21T13:14:00;25.20;46.00
10911;DHT22;5508;49.150;11.030;2022-08-21T13:17:04;25.20;45.80
10911;DHT22;5508;49.150;11.030;2022-08-21T13:20:09;25.20;46.80
10911;DHT22;5508;49.150;11.030;2022-08-21T13:23:27;25.30;43.60
10911;DHT22;5508;49.150;11.030;2022-08-21T13:26:28;25.30;45.60
10911;DHT22;5508;49.150;11.030;2022-08-21T13:29:32;25.40;45.20
10911;DHT22;5508;49.150;11.030;2022-08-21T13:32:39;25.80;42.60
10911;DHT22;5508;49.150;11.030;2022-08-21T13:38:56;25.80;42.50
10911;DHT22;5508;49.150;11.030;2022-08-21T13:42:00;25.60;43.90
10911;DHT22;5508;49.150;11.030;2022-08-21T13:45:01;25.50;45.50
10911;DHT22;5508;49.150;11.030;2022-08-21T13:48:03;25.10;48.10
10911;DHT22;5508;49.150;11.030;2022-08-21T13:51:05;25.10;40.90
10911;DHT22;5508;49.150;11.030;2022-08-21T14:00:29;24.80;45.40
10911;DHT22;5508;49.150;11.030;2022-08-21T14:03:42;24.80;42.80
10911;DHT22;5508;49.150;11.030;2022-08-21T14:06:46;24.90;44.60
10911;DHT22;5508;49.150;11.030;2022-08-21T14:09:47;25.20;47.30
10911;DHT22;5508;49.150;11.030;2022-08-21T14:12:55;25.40;45.60
10911;DHT22;5508;49.150;11.030;2022-08-21T14:15:58;25.80;45.70
10911;DHT22;5508;49.150;11.030;2022-08-21T14:21:59;25.10;43.20
10911;DHT22;5508;49.150;11.030;2022-08-21T14:25:48;24.60;47.80
10911;DHT22;5508;49.150;11.030;2022-08-21T14:28:40;24.40;45.90
10911;DHT22;5508;49.150;11.030;2022-08-21T14:31:41;24.20;49.40
10911;DHT22;5508;49.150;11.030;2022-08-21T14:34:44;24.20;45.50
10911;DHT22;5508;49.150;11.030;2022-08-21T14:37:45;24.30;46.60
10911;DHT22;5508;49.150;11.030;2022-08-21T14:40:49;24.30;45.80
10911;DHT22;5508;49.150;11.030;2022-08-21T14:43:50;24.10;47.00
10911;DHT22;5508;49.150;11.030;2022-08-21T14:46:53;23.80;48.00
10911;DHT22;5508;49.150;11.030;2022-08-21T14:49:55;23.70;48.20
10911;DHT22;5508;49.150;11.030;2022-08-21T14:52:55;23.80;48.30
10911;DHT22;5508;49.150;11.030;2022-08-21T14:55:56;23.90;48.50
10911;DHT22;5508;49.150;11.030;2022-08-21T14:59:07;24.20;46.10
10911;DHT22;5508;49.150;11.030;2022-08-21T15:02:09;24.30;48.20
10911;DHT22;5508;49.150;11.030;2022-08-21T15:05:10;24.50;46.90
10911;DHT22;5508;49.150;11.030;2022-08-21T15:08:11;24.60;43.20
10911;DHT22;5508;49.150;11.030;2022-08-21T15:11:17;24.70;43.20
10911;DHT22;5508;49.150;11.030;2022-08-21T15:14:20;24.70;42.50
10911;DHT22;5508;49.150;11.030;2022-08-21T15:17:21;24.70;45.20
10911;DHT22;5508;49.150;11.030;2022-08-21T15:20:22;24.50;45.40
10911;DHT22;5508;49.150;11.030;2022-08-21T15:23:23;24.20;47.50
10911;DHT22;5508;49.150;11.030;2022-08-21T15:26:23;23.90;47.40
10911;DHT22;5508;49.150;11.030;2022-08-21T15:29:24;23.70;50.20
10911;DHT22;5508;49.150;11.030;2022-08-21T15:32:27;23.70;50.60
10911;DHT22;5508;49.150;11.030;2022-08-21T15:35:29;23.70;48.40
10911;DHT22;5508;49.150;11.030;2022-08-21T15:38:29;23.60;47.90
10911;DHT22;5508;49.150;11.030;2022-08-21T15:41:30;23.50;47.80
10911;DHT22;5508;49.150;11.030;2022-08-21T15:44:31;23.40;48.10
10911;DHT22;5508;49.150;11.030;2022-08-21T15:47:34;23.30;48.70
10911;DHT22;5508;49.150;11.030;2022-08-21T15:50:35;23.40;48.50
10911;DHT22;5508;49.150;11.030;2022-08-21T15:53:36;23.50;49.30
10911;DHT22;5508;49.150;11.030;2022-08-21T15:56:42;23.60;48.60
10911;DHT22;5508;49.150;11.030;2022-08-21T16:00:18;23.60;48.60
10911;DHT22;5508;49.150;11.030;2022-08-21T16:03:19;23.60;49.10
10911;DHT22;5508;49.150;11.030;2022-08-21T16:06:22;23.70;48.20
10911;DHT22;5508;49.150;11.030;2022-08-21T16:09:22;23.60;47.60
10911;DHT22;5508;49.150;11.030;2022-08-21T16:12:27;23.60;47.60
10911;DHT22;5508;49.150;11.030;2022-08-21T16:15:31;23.60;52.20
10911;DHT22;5508;49.150;11.030;2022-08-21T16:18:31;23.50;49.80
10911;DHT22;5508;49.150;11.030;2022-08-21T16:21:33;23.50;50.50
10911;DHT22;5508;49.150;11.030;2022-08-21T16:24:34;23.50;48.00
10911;DHT22;5508;49.150;11.030;2022-08-21T16:27:35;23.40;47.60
10911;DHT22;5508;49.150;11.030;2022-08-21T16:30:36;23.40;46.90
10911;DHT22;5508;49.150;11.030;2022-08-21T16:33:43;23.30;49.00
10911;DHT22;5508;49.150;11.030;2022-08-21T16:36:44;23.30;49.70
10911;DHT22;5508;49.150;11.030;2022-08-21T16:39:45;23.20;51.20
10911;DHT22;5508;49.150;11.030;2022-08-21T16:42:45;23.10;47.90
10911;DHT22;5508;49.150;11.030;2022-08-21T16:45:47;23.10;50.00
10911;DHT22;5508;49.150;11.030;2022-08-21T16:48:48;23.10;49.10
10911;DHT22;5508;49.150;11.030;2022-08-21T16:51:49;23.00;50.70
10911;DHT22;5508;49.150;11.030;2022-08-21T16:54:49;23.00;48.00
10911;DHT22;5508;49.150;11.030;2022-08-21T16:57:52;22.90;48.40
10911;DHT22;5508;49.150;11.030;2022-08-21T17:00:54;22.90;49.30
10911;DHT22;5508;49.150;11.030;2022-08-21T17:03:55;22.80;48.20
10911;DHT22;5508;49.150;11.030;2022-08-21T17:06:56;22.80;47.90
10911;DHT22;5508;49.150;11.030;2022-08-21T17:09:56;22.70;48.90
10911;DHT22;5508;49.150;11.030;2022-08-21T17:12:57;22.50;52.80
10911;DHT22;5508;49.150;11.030;2022-08-21T17:15:58;22.40;49.30
10911;DHT22;5508;49.150;11.030;2022-08-21T17:18:59;22.40;48.00
10911;DHT22;5508;49.150;11.030;2022-08-21T17:22:00;22.50;51.50
10911;DHT22;5508;49.150;11.030;2022-08-21T17:25:00;22.40;51.20
10911;DHT22;5508;49.150;11.030;2022-08-21T17:28:02;22.20;52.30
10911;DHT22;5508;49.150;11.030;2022-08-21T17:31:03;22.00;55.80
10911;DHT22;5508;49.150;11.030;2022-08-21T17:34:05;21.90;54.10
10911;DHT22;5508;49.150;11.030;2022-08-21T17:37:06;21.80;55.40
10911;DHT22;5508;49.150;11.030;2022-08-21T17:40:09;21.70;55.30
10911;DHT22;5508;49.150;11.030;2022-08-21T17:43:13;21.50;57.30
10911;DHT22;5508;49.150;11.030;2022-08-21T17:46:18;21.40;52.90
10911;DHT22;5508;49.150;11.030;2022-08-21T17:49:20;21.30;56.10
10911;DHT22;5508;49.150;11.030;2022-08-21T17:52:20;21.20;58.20
10911;DHT22;5508;49.150;11.030;2022-08-21T17:55:21;21.10;56.30
10911;DHT22;5508;49.150;11.030;2022-08-21T17:58:22;21.00;58.70
10911;DHT22;5508;49.150;11.030;2022-08-21T18:01:25;20.80;63.10
10911;DHT22;5508;49.150;11.030;2022-08-21T18:04:30;20.60;64.30
10911;DHT22;5508;49.150;11.030;2022-08-21T18:07:30;20.40;66.00
10911;DHT22;5508;49.150;11.030;2022-08-21T18:10:31;20.20;67.90
10911;DHT22;5508;49.150;11.030;2022-08-21T18:13:35;20.00;70.20
10911;DHT22;5508;49.150;11.030;2022-08-21T18:16:36;19.80;70.50
10911;DHT22;5508;49.150;11.030;2022-08-21T18:19:38;19.70;72.50
10911;DHT22;5508;49.150;11.030;2022-08-21T18:22:38;19.60;73.00
10911;DHT22;5508;49.150;11.030;2022-08-21T18:25:43;19.40;74.90
10911;DHT22;5508;49.150;11.030;2022-08-21T18:28:46;19.30;73.30
10911;DHT22;5508;49.150;11.030;2022-08-21T18:31:47;19.20;71.70
10911;DHT22;5508;49.150;11.030;2022-08-21T18:34:49;19.00;75.30
10911;DHT22;5508;49.150;11.030;2022-08-21T18:37:49;18.90;77.00
10911;DHT22;5508;49.150;11.030;2022-08-21T18:40:51;18.70;77.50
10911;DHT22;5508;49.150;11.030;2022-08-21T18:43:53;18.50;77.90
10911;DHT22;5508;49.150;11.030;2022-08-21T18:47:03;18.40;78.90
10911;DHT22;5508;49.150;11.030;2022-08-21T18:50:06;18.30;81.20
10911;DHT22;5508;49.150;11.030;2022-08-21T18:53:08;18.10;82.80
10911;DHT22;5508;49.150;11.030;2022-08-21T18:56:08;18.00;82.50
10911;DHT22;5508;49.150;11.030;2022-08-21T18:59:10;17.90;82.90
10911;DHT22;5508;49.150;11.030;2022-08-21T19:02:11;17.80;84.10
10911;DHT22;5508;49.150;11.030;2022-08-21T19:05:14;17.80;84.10
10911;DHT22;5508;49.150;11.030;2022-08-21T19:08:18;17.70;84.40
10911;DHT22;5508;49.150;11.030;2022-08-21T19:11:19;17.60;85.20
10911;DHT22;5508;49.150;11.030;2022-08-21T19:14:20;17.50;85.10
10911;DHT22;5508;49.150;11.030;2022-08-21T19:17:21;17.40;85.70
10911;DHT22;5508;49.150;11.030;2022-08-21T19:20:30;17.20;86.50
10911;DHT22;5508;49.150;11.030;2022-08-21T19:23:34;17.00;88.10
10911;DHT22;5508;49.150;11.030;2022-08-21T19:26:34;16.90;88.60
10911;DHT22;5508;49.150;11.030;2022-08-21T19:29:37;16.80;89.10
10911;DHT22;5508;49.150;11.030;2022-08-21T19:32:42;16.80;89.30
10911;DHT22;5508;49.150;11.030;2022-08-21T19:35:44;16.70;89.20
10911;DHT22;5508;49.150;11.030;2022-08-21T19:38:44;16.70;89.80
10911;DHT22;5508;49.150;11.030;2022-08-21T19:41:48;16.50;90.20
10911;DHT22;5508;49.150;11.030;2022-08-21T19:44:51;16.50;91.10
10911;DHT22;5508;49.150;11.030;2022-08-21T19:47:52;16.50;90.80
10911;DHT22;5508;49.150;11.030;2022-08-21T19:50:52;16.50;91.30
10911;DHT22;5508;49.150;11.030;2022-08-21T19:53:54;16.50;91.50
10911;DHT22;5508;49.150;11.030;2022-08-21T19:56:56;16.30;92.00
10911;DHT22;5508;49.150;11.030;2022-08-21T19:59:57;16.20;92.70
10911;DHT22;5508;49.150;11.030;2022-08-21T20:02:58;16.10;93.20
10911;DHT22;5508;49.150;11.030;2022-08-21T20:05:58;16.00;93.50
10911;DHT22;5508;49.150;11.030;2022-08-21T20:08:59;15.90;94.20
10911;DHT22;5508;49.150;11.030;2022-08-21T20:15:04;15.80;94.70
10911;DHT22;5508;49.150;11.030;2022-08-21T20:18:04;15.80;95.80
10911;DHT22;5508;49.150;11.030;2022-08-21T20:21:06;15.80;96.40
10911;DHT22;5508;49.150;11.030;2022-08-21T20:24:07;15.70;96.20
10911;DHT22;5508;49.150;11.030;2022-08-21T20:27:13;15.60;96.40
10911;DHT22;5508;49.150;11.030;2022-08-21T20:30:15;15.40;96.90
10911;DHT22;5508;49.150;11.030;2022-08-21T20:33:16;15.30;97.90
10911;DHT22;5508;49.150;11.030;2022-08-21T20:36:19;15.30;98.70
10911;DHT22;5508;49.150;11.030;2022-08-21T20:39:21;15.20;99.30
10911;DHT22;5508;49.150;11.030;2022-08-21T20:42:23;15.20;99.30
10911;DHT22;5508;49.150;11.030;2022-08-21T20:45:32;15.30;99.60
10911;DHT22;5508;49.150;11.030;2022-08-21T20:48:36;15.20;99.00